Time;durP1;ratioP1;P1;durP2;ratioP2;P2;SDS_P1;SDS_P2;PMS_P1;PMS_P2;Temp;Humidity;BMP_temperature;BMP_pressure;BME280_temperature;BME280_humidity;BME280_pressure;Samples;Min_cycle;Max_cycle;Signal;HPM_P1;HPM_P2
2022/07/26 00:01:00;;;;;;;1.58;0.80;;;25.30;50.00;;;;;;6043983;23;92330;-86
2022/07/26 00:03:25;;;;;;;1.20;0.80;;;25.20;50.00;;;;;;6070973;23;93226;-86
2022/07/26 00:05:51;;;;;;;1.15;0.65;;;25.30;50.00;;;;;;6070419;23;92951;-86
2022/07/26 00:08:17;;;;;;;1.42;0.85;;;25.20;50.10;;;;;;6070580;23;92178;-86
2022/07/26 00:10:45;;;;;;;1.00;0.80;;;25.30;50.20;;;;;;6070558;23;92318;-86
2022/07/26 00:13:11;;;;;;;2.28;0.80;;;25.20;50.30;;;;;;6070837;23;92843;-86
2022/07/26 00:15:38;;;;;;;2.58;1.00;;;25.20;50.20;;;;;;6071191;23;92356;-86
2022/07/26 00:18:04;;;;;;;1.40;0.60;;;25.20;50.20;;;;;;6044325;23;92187;-87
2022/07/26 00:20:31;;;;;;;2.55;0.90;;;25.20;50.20;;;;;;6043467;23;92379;-87
2022/07/26 00:22:57;;;;;;;1.20;0.90;;;25.20;50.30;;;;;;6042736;23;96444;-86
2022/07/26 00:25:23;;;;;;;1.95;1.10;;;25.20;50.30;;;;;;6043464;23;96799;-86
2022/07/26 00:27:48;;;;;;;2.05;0.90;;;25.20;50.40;;;;;;6045278;23;91936;-86
2022/07/26 00:30:14;;;;;;;2.25;0.82;;;25.20;50.40;;;;;;6070964;23;92418;-86
2022/07/26 00:32:40;;;;;;;3.03;0.95;;;25.20;50.40;;;;;;6070334;23;93489;-86
2022/07/26 00:35:06;;;;;;;2.83;1.00;;;25.20;50.50;;;;;;6070170;23;92413;-86
2022/07/26 00:37:31;;;;;;;1.83;0.95;;;25.20;50.50;;;;;;6070706;23;92269;-86
2022/07/26 00:39:58;;;;;;;1.58;1.10;;;25.20;50.60;;;;;;6044562;23;91190;-86
2022/07/26 00:42:24;;;;;;;1.08;0.75;;;25.20;50.70;;;;;;6070276;23;93893;-86
2022/07/26 00:44:49;;;;;;;3.60;0.90;;;25.20;50.60;;;;;;6043739;23;96999;-86
2022/07/26 00:47:15;;;;;;;2.20;0.77;;;25.20;50.70;;;;;;6069691;23;93273;-86
2022/07/26 00:49:42;;;;;;;1.17;0.80;;;25.20;50.50;;;;;;6044361;23;92244;-86
2022/07/26 00:52:08;;;;;;;1.80;0.90;;;25.20;50.70;;;;;;6070730;23;93515;-86
2022/07/26 00:54:36;;;;;;;1.13;0.82;;;25.20;50.80;;;;;;6070730;23;93105;-85
2022/07/26 00:57:02;;;;;;;1.48;0.80;;;25.20;50.70;;;;;;6071924;23;91884;-86
2022/07/26 00:59:28;;;;;;;2.60;0.80;;;25.20;50.80;;;;;;6071408;23;92623;-86
2022/07/26 01:01:54;;;;;;;0.98;0.60;;;25.20;50.80;;;;;;6071324;23;93625;-86
2022/07/26 01:04:20;;;;;;;1.42;0.90;;;25.20;50.80;;;;;;6071987;23;92861;-86
2022/07/26 01:06:47;;;;;;;1.20;0.70;;;25.20;50.80;;;;;;6071892;23;91922;-85
2022/07/26 01:09:13;;;;;;;2.83;0.75;;;25.20;50.80;;;;;;6045678;23;91928;-86
2022/07/26 01:11:39;;;;;;;1.30;0.73;;;25.20;50.80;;;;;;6044333;23;97498;-86
2022/07/26 01:14:04;;;;;;;1.27;0.90;;;25.20;51.00;;;;;;6071192;23;93981;-86
2022/07/26 01:16:38;;;;;;;1.20;0.65;;;25.20;51.00;;;;;;6045821;23;92056;-86
2022/07/26 01:19:04;;;;;;;0.85;0.70;;;25.10;51.10;;;;;;6072000;23;92213;-85
2022/07/26 01:21:30;;;;;;;0.88;0.80;;;25.10;51.20;;;;;;6045469;23;95582;-86
2022/07/26 01:23:56;;;;;;;1.23;0.60;;;25.10;51.20;;;;;;6044310;23;96274;-87
2022/07/26 01:26:21;;;;;;;1.67;0.85;;;25.10;51.30;;;;;;6045178;23;92308;-87
2022/07/26 01:28:48;;;;;;;1.63;0.85;;;25.10;51.20;;;;;;6071743;23;91491;-86
2022/07/26 01:31:14;;;;;;;1.48;0.73;;;25.10;51.20;;;;;;6045461;23;94665;-86
2022/07/26 01:33:40;;;;;;;1.40;0.80;;;25.10;51.30;;;;;;6044847;23;95992;-86
2022/07/26 01:36:07;;;;;;;2.05;0.90;;;25.10;51.30;;;;;;6071566;23;92787;-86
2022/07/26 01:38:33;;;;;;;1.48;0.70;;;25.10;51.50;;;;;;6071369;23;91820;-86
2022/07/26 01:40:58;;;;;;;2.33;0.80;;;25.10;51.50;;;;;;6071379;23;92506;-86
2022/07/26 01:43:24;;;;;;;1.77;1.00;;;25.10;51.50;;;;;;6071297;23;93108;-85
2022/07/26 01:45:51;;;;;;;1.65;0.90;;;25.10;51.50;;;;;;6071096;23;92346;-86
2022/07/26 01:48:17;;;;;;;1.52;0.73;;;25.00;51.50;;;;;;6045772;23;91863;-86
2022/07/26 01:50:43;;;;;;;1.63;1.00;;;25.00;51.50;;;;;;6072239;23;94173;-86
2022/07/26 01:53:09;;;;;;;0.75;0.75;;;25.00;51.50;;;;;;6071560;23;93505;-85
2022/07/26 01:55:35;;;;;;;1.10;0.70;;;25.00;51.40;;;;;;6045479;23;92605;-85
2022/07/26 01:58:02;;;;;;;1.10;0.95;;;25.00;51.50;;;;;;6070976;23;92319;-85
2022/07/26 02:00:36;;;;;;;2.28;0.82;;;25.10;51.60;;;;;;6070354;23;94287;-86
2022/07/26 02:03:01;;;;;;;0.88;0.60;;;25.00;51.50;;;;;;6044513;23;95700;-86
2022/07/26 02:05:27;;;;;;;1.80;0.80;;;25.00;51.60;;;;;;6071292;23;91902;-86
2022/07/26 02:07:53;;;;;;;1.50;1.15;;;25.00;51.50;;;;;;6045930;23;92438;-87
2022/07/26 02:10:18;;;;;;;0.93;0.77;;;25.00;51.70;;;;;;6070833;23;93035;-86
2022/07/26 02:12:44;;;;;;;1.20;0.75;;;25.00;51.60;;;;;;6044766;23;95424;-86
2022/07/26 02:15:12;;;;;;;1.55;0.85;;;25.00;51.80;;;;;;6071619;23;92138;-86
2022/07/26 02:17:37;;;;;;;1.58;0.70;;;25.00;51.80;;;;;;6046067;23;91609;-86
2022/07/26 02:20:04;;;;;;;0.85;0.75;;;25.00;51.60;;;;;;6042939;23;96578;-86
2022/07/26 02:22:30;;;;;;;1.55;0.70;;;25.00;51.70;;;;;;6041917;23;95042;-87
2022/07/26 02:24:55;;;;;;;1.00;0.60;;;25.00;51.60;;;;;;6069231;23;93832;-86
2022/07/26 02:27:21;;;;;;;1.25;0.90;;;25.00;51.60;;;;;;6044384;23;92331;-86
2022/07/26 02:29:47;;;;;;;1.40;0.80;;;25.00;51.80;;;;;;6044161;23;95115;-86
2022/07/26 02:32:12;;;;;;;1.42;1.00;;;25.00;52.00;;;;;;6071177;23;92646;-87
2022/07/26 02:34:38;;;;;;;0.95;0.77;;;25.00;52.00;;;;;;6044910;23;91835;-86
2022/07/26 02:37:04;;;;;;;1.90;0.85;;;25.00;52.00;;;;;;6045314;23;92219;-86
2022/07/26 02:39:29;;;;;;;1.10;0.80;;;25.00;52.00;;;;;;6070918;23;92991;-86
2022/07/26 02:41:57;;;;;;;1.02;0.80;;;25.00;51.90;;;;;;6071413;23;92406;-86
2022/07/26 02:44:35;;;;;;;1.67;0.75;;;25.00;52.10;;;;;;6045187;23;91956;-86
2022/07/26 02:47:01;;;;;;;1.73;1.07;;;25.00;52.10;;;;;;6043852;23;92319;-86
2022/07/26 02:49:27;;;;;;;1.52;0.70;;;25.00;52.10;;;;;;6043776;23;96590;-87
2022/07/26 02:51:52;;;;;;;1.55;0.80;;;25.00;52.30;;;;;;6073510;23;93866;-86
2022/07/26 02:54:18;;;;;;;1.20;0.80;;;24.90;52.20;;;;;;6072286;23;92152;-86
2022/07/26 02:56:44;;;;;;;1.35;0.90;;;24.90;52.30;;;;;;6071001;23;91788;-86
2022/07/26 02:59:09;;;;;;;1.95;0.85;;;24.90;52.40;;;;;;6043850;23;96476;-86
2022/07/26 03:01:35;;;;;;;1.50;0.82;;;24.90;52.50;;;;;;6071205;23;92778;-86
2022/07/26 03:04:01;;;;;;;2.08;1.20;;;24.90;52.40;;;;;;6071266;23;92516;-86
2022/07/26 03:06:27;;;;;;;1.08;0.80;;;24.90;52.30;;;;;;6071821;23;91657;-87
2022/07/26 03:08:53;;;;;;;1.10;0.70;;;24.90;52.30;;;;;;6070353;23;94078;-86
2022/07/26 03:11:18;;;;;;;0.93;0.50;;;24.90;52.10;;;;;;6044795;23;97232;-86
2022/07/26 03:13:44;;;;;;;0.95;0.77;;;24.90;52.20;;;;;;6070980;23;92923;-86
2022/07/26 03:16:10;;;;;;;0.88;0.77;;;24.90;52.30;;;;;;6070873;23;92075;-86
2022/07/26 03:18:36;;;;;;;1.05;0.80;;;24.90;52.20;;;;;;6070423;23;93464;-86
2022/07/26 03:21:01;;;;;;;1.13;0.80;;;24.90;52.30;;;;;;6070823;23;93316;-86
2022/07/26 03:23:27;;;;;;;1.70;0.98;;;24.90;52.40;;;;;;6044615;23;91821;-86
2022/07/26 03:25:53;;;;;;;1.02;0.60;;;24.90;52.30;;;;;;6070930;23;92272;-86
2022/07/26 03:28:19;;;;;;;1.00;0.60;;;24.90;52.30;;;;;;6044074;23;94613;-86
2022/07/26 03:30:46;;;;;;;2.17;1.10;;;24.90;52.40;;;;;;6044002;23;95755;-86
2022/07/26 03:33:12;;;;;;;0.95;0.60;;;24.90;52.40;;;;;;6044611;23;91946;-86
2022/07/26 03:35:38;;;;;;;1.33;0.82;;;24.90;52.50;;;;;;6070617;23;92196;-86
2022/07/26 03:38:03;;;;;;;1.20;0.95;;;24.90;52.40;;;;;;6069849;23;94514;-86
2022/07/26 03:40:29;;;;;;;1.50;0.80;;;24.90;52.40;;;;;;6070307;23;92547;-86
2022/07/26 03:42:54;;;;;;;0.70;0.60;;;24.90;52.40;;;;;;6070939;23;92070;-86
2022/07/26 03:45:20;;;;;;;0.90;0.73;;;24.90;52.50;;;;;;6044366;23;91918;-86
2022/07/26 03:47:46;;;;;;;1.05;0.73;;;24.90;52.40;;;;;;6070259;23;94227;-86
2022/07/26 03:50:12;;;;;;;1.05;0.70;;;24.90;52.50;;;;;;6069946;23;92544;-86
2022/07/26 03:52:38;;;;;;;1.10;0.80;;;24.90;52.50;;;;;;6070986;23;92260;-86
2022/07/26 03:56:27;;;;;;;1.08;0.77;;;24.80;52.50;;;;;;6071576;23;91416;-86
2022/07/26 03:57:51;;;;;;;0.90;0.60;;;24.80;52.50;;;;;;6070006;23;93593;-86
2022/07/26 04:00:17;;;;;;;1.63;0.90;;;24.80;52.60;;;;;;6044046;23;96200;-86
2022/07/26 04:02:43;;;;;;;1.15;0.93;;;24.80;52.70;;;;;;6043618;23;93492;-86
2022/07/26 04:05:09;;;;;;;0.85;0.70;;;24.80;52.80;;;;;;6044823;23;92343;-86
2022/07/26 04:07:44;;;;;;;0.77;0.60;;;24.80;52.70;;;;;;6070230;23;93643;-86
2022/07/26 04:10:11;;;;;;;1.00;0.80;;;24.80;52.70;;;;;;6070487;23;92488;-85
2022/07/26 04:12:36;;;;;;;1.05;0.70;;;24.80;52.60;;;;;;6070716;23;92322;-86
2022/07/26 04:15:03;;;;;;;1.25;0.93;;;24.80;52.70;;;;;;6070406;23;91749;-87
2022/07/26 04:17:34;;;;;;;1.20;0.90;;;24.80;52.80;;;;;;6069952;23;95732;-86
2022/07/26 04:20:00;;;;;;;1.45;0.98;;;24.80;52.90;;;;;;6070660;23;92272;-87
2022/07/26 04:22:26;;;;;;;1.23;0.90;;;24.80;53.00;;;;;;6044674;23;91950;-86
2022/07/26 04:24:51;;;;;;;0.90;0.80;;;24.80;52.90;;;;;;6070369;23;91981;-86
2022/07/26 04:27:17;;;;;;;1.27;0.93;;;24.80;52.80;;;;;;6069847;23;94537;-86
2022/07/26 04:29:43;;;;;;;2.42;1.15;;;24.80;53.00;;;;;;6070963;23;93711;-85
2022/07/26 04:32:08;;;;;;;1.52;0.90;;;24.80;53.00;;;;;;6072133;23;91943;-85
2022/07/26 04:34:34;;;;;;;1.50;0.85;;;24.80;53.00;;;;;;6071514;23;91965;-86
2022/07/26 04:36:59;;;;;;;1.13;0.60;;;24.80;53.00;;;;;;6071250;23;92734;-86
2022/07/26 04:39:25;;;;;;;1.38;0.88;;;24.80;53.60;;;;;;6070860;23;92546;-86
2022/07/26 04:41:51;;;;;;;0.88;0.68;;;24.80;53.00;;;;;;6072080;23;91872;-86
2022/07/26 04:44:16;;;;;;;1.65;0.90;;;24.80;53.00;;;;;;6072694;23;91653;-86
2022/07/26 04:46:42;;;;;;;1.23;0.90;;;24.80;52.90;;;;;;6071548;23;93413;-86
2022/07/26 04:49:12;;;;;;;0.77;0.70;;;24.80;52.90;;;;;;6045345;23;96425;-86
2022/07/26 04:51:38;;;;;;;1.88;0.98;;;24.80;53.00;;;;;;6044910;23;93014;-86
2022/07/26 04:54:04;;;;;;;1.20;0.70;;;24.80;53.10;;;;;;6072569;23;92171;-86
2022/07/26 04:56:29;;;;;;;1.52;0.98;;;24.80;53.10;;;;;;6071479;23;94222;-86
2022/07/26 04:58:55;;;;;;;1.42;0.70;;;24.80;53.10;;;;;;6071880;23;93218;-86
2022/07/26 05:01:21;;;;;;;1.35;0.70;;;24.80;53.00;;;;;;6045598;23;92266;-86
2022/07/26 05:03:46;;;;;;;0.90;0.70;;;24.80;53.10;;;;;;6071527;23;92409;-86
2022/07/26 05:06:12;;;;;;;0.63;0.60;;;24.80;53.20;;;;;;6071497;23;93158;-86
2022/07/26 05:08:38;;;;;;;1.98;1.00;;;24.80;53.00;;;;;;6071582;23;93204;-86
2022/07/26 05:11:03;;;;;;;1.38;0.80;;;24.80;53.10;;;;;;6046209;23;91999;-86
2022/07/26 05:13:29;;;;;;;0.80;0.80;;;24.80;53.00;;;;;;6070815;23;92510;-86
2022/07/26 05:15:54;;;;;;;1.33;0.90;;;24.80;53.20;;;;;;6044235;23;96376;-86
2022/07/26 05:18:20;;;;;;;1.73;0.90;;;24.80;53.10;;;;;;6045189;23;95727;-86
2022/07/26 05:20:46;;;;;;;1.05;0.90;;;24.80;53.10;;;;;;6045706;23;91957;-86
2022/07/26 05:23:11;;;;;;;1.50;0.70;;;24.70;53.10;;;;;;6045101;23;92269;-86
2022/07/26 05:25:37;;;;;;;1.52;0.93;;;24.80;53.20;;;;;;6071675;23;94151;-86
2022/07/26 05:28:03;;;;;;;1.40;0.77;;;24.70;53.10;;;;;;6071375;23;92131;-86
2022/07/26 05:30:29;;;;;;;0.88;0.70;;;24.70;53.10;;;;;;6071777;23;92384;-86
2022/07/26 05:32:55;;;;;;;1.52;0.95;;;24.70;53.20;;;;;;6045482;23;91311;-86
2022/07/26 05:35:20;;;;;;;1.48;0.93;;;24.70;53.00;;;;;;6044947;23;94991;-86
2022/07/26 05:37:46;;;;;;;1.33;1.00;;;24.70;53.10;;;;;;6070575;23;92865;-86
2022/07/26 05:40:21;;;;;;;2.35;0.85;;;24.70;53.30;;;;;;6070206;23;93127;-86
2022/07/26 05:42:47;;;;;;;1.30;0.80;;;24.70;53.90;;;;;;6044709;23;91931;-86
2022/07/26 05:45:13;;;;;;;0.85;0.80;;;24.70;53.10;;;;;;6070569;23;93117;-86
2022/07/26 05:47:39;;;;;;;1.40;0.80;;;24.70;53.20;;;;;;6070652;23;93262;-86
2022/07/26 05:50:05;;;;;;;1.52;0.90;;;24.70;53.20;;;;;;6070572;23;92306;-86
2022/07/26 05:52:31;;;;;;;2.25;0.98;;;24.70;53.20;;;;;;6044590;23;92429;-86
2022/07/26 05:54:57;;;;;;;1.63;0.90;;;24.80;53.40;;;;;;6072030;23;92708;-86
2022/07/26 05:57:23;;;;;;;1.05;0.85;;;24.70;53.20;;;;;;6071485;23;92648;-86
2022/07/26 05:59:49;;;;;;;1.85;0.88;;;24.70;53.30;;;;;;6071590;23;92318;-86
2022/07/26 06:02:14;;;;;;;1.55;0.77;;;24.70;53.40;;;;;;6044888;23;91830;-87
2022/07/26 06:04:40;;;;;;;1.30;0.93;;;24.70;53.30;;;;;;6069783;23;94487;-86
2022/07/26 06:07:06;;;;;;;1.20;0.90;;;24.70;53.30;;;;;;6068731;23;93270;-86
2022/07/26 06:09:31;;;;;;;0.77;0.75;;;24.70;53.30;;;;;;6041945;23;91998;-85
2022/07/26 06:11:57;;;;;;;0.85;0.80;;;24.70;53.40;;;;;;6069031;23;91956;-87
2022/07/26 06:14:23;;;;;;;3.25;1.08;;;24.70;53.10;;;;;;6041317;23;94687;-84
2022/07/26 06:16:49;;;;;;;3.40;1.00;;;24.80;53.20;;;;;;6068174;23;92230;-83
2022/07/26 06:19:15;;;;;;;3.13;1.35;;;24.70;53.20;;;;;;6068947;23;92323;-83
2022/07/26 06:21:41;;;;;;;6.07;1.10;;;24.80;53.30;;;;;;6069248;23;91151;-84
2022/07/26 06:24:07;;;;;;;5.18;1.52;;;24.80;53.30;;;;;;6043063;23;94078;-84
2022/07/26 06:26:33;;;;;;;5.18;1.20;;;24.80;53.30;;;;;;6071213;23;92517;-85
2022/07/26 06:28:58;;;;;;;3.03;1.42;;;24.70;53.20;;;;;;6071045;23;92784;-84
2022/07/26 06:31:24;;;;;;;17.77;3.35;;;24.80;53.60;;;;;;6070203;23;92016;-83
2022/07/26 06:33:50;;;;;;;5.90;2.17;;;24.80;54.20;;;;;;6069349;23;93176;-84
2022/07/26 06:36:16;;;;;;;8.82;2.15;;;24.80;54.00;;;;;;6069452;23;92294;-84
2022/07/26 06:38:41;;;;;;;9.70;2.40;;;24.80;54.20;;;;;;6069198;23;92034;-84
2022/07/26 06:41:07;;;;;;;8.23;2.78;;;24.90;54.80;;;;;;6069132;23;91969;-84
2022/07/26 06:43:32;;;;;;;19.83;3.33;;;24.80;55.40;;;;;;6070769;23;93650;-83
2022/07/26 06:45:58;;;;;;;13.15;3.30;;;24.70;55.50;;;;;;6070004;23;93012;-83
2022/07/26 06:48:24;;;;;;;13.77;3.45;;;24.70;56.20;;;;;;6070542;23;92360;-84
2022/07/26 06:50:49;;;;;;;10.15;3.10;;;24.70;56.50;;;;;;6070560;23;92333;-85
2022/07/26 06:53:15;;;;;;;14.55;3.63;;;24.60;57.10;;;;;;6069811;23;93985;-85
2022/07/26 06:55:41;;;;;;;11.63;3.65;;;24.60;56.80;;;;;;6073606;23;94307;-84
2022/07/26 06:58:06;;;;;;;12.93;3.40;;;24.50;56.90;;;;;;6070093;23;91975;-84
2022/07/26 07:00:32;;;;;;;15.02;3.40;;;24.60;56.90;;;;;;6043906;23;91786;-85
2022/07/26 07:02:57;;;;;;;14.27;3.05;;;24.50;57.10;;;;;;6069528;23;93274;-85
2022/07/26 07:05:23;;;;;;;10.30;3.55;;;24.50;57.30;;;;;;6044511;23;92701;-84
2022/07/26 07:07:49;;;;;;;12.43;3.72;;;24.40;57.50;;;;;;6070599;23;92006;-85
2022/07/26 07:10:15;;;;;;;14.30;3.30;;;24.40;57.80;;;;;;6068599;23;91043;-84
2022/07/26 07:12:42;;;;;;;13.63;3.33;;;24.40;57.80;;;;;;6069063;23;92209;-84
2022/07/26 07:15:08;;;;;;;12.48;3.40;;;24.50;57.70;;;;;;6069225;23;93542;-86
2022/07/26 07:17:34;;;;;;;17.38;3.42;;;24.50;57.90;;;;;;6069224;23;92817;-83
2022/07/26 07:20:00;;;;;;;12.57;3.70;;;24.50;57.60;;;;;;6041641;23;91959;-84
2022/07/26 07:22:25;;;;;;;14.85;3.63;;;24.60;57.80;;;;;;6069355;23;93500;-84
2022/07/26 07:24:51;;;;;;;12.23;3.13;;;24.60;58.00;;;;;;5993654;23;92388;-84
2022/07/26 07:27:16;;;;;;;13.07;3.97;;;24.70;58.20;;;;;;6071011;23;91993;-84
2022/07/26 07:29:42;;;;;;;13.00;3.75;;;24.70;57.90;;;;;;6043190;23;91975;-85
2022/07/26 07:32:08;;;;;;;13.65;3.17;;;24.70;57.30;;;;;;6069504;23;93534;-85
2022/07/26 07:34:34;;;;;;;14.52;3.95;;;24.70;57.30;;;;;;6069918;23;93084;-84
2022/07/26 07:37:00;;;;;;;6.53;2.70;;;24.70;57.50;;;;;;6070025;23;92358;-85
2022/07/26 07:39:25;;;;;;;10.32;3.30;;;24.70;57.50;;;;;;6043426;23;92206;-85
2022/07/26 07:41:51;;;;;;;13.88;3.38;;;24.70;57.50;;;;;;6068779;23;93202;-86
2022/07/26 07:44:16;;;;;;;12.82;3.35;;;24.70;57.40;;;;;;6069858;23;94273;-86
2022/07/26 07:46:42;;;;;;;10.80;3.10;;;24.70;57.20;;;;;;6070043;23;92375;-84
2022/07/26 07:49:09;;;;;;;9.73;2.90;;;24.80;57.30;;;;;;6070589;23;92426;-85
2022/07/26 07:51:34;;;;;;;12.98;3.47;;;24.80;57.30;;;;;;6068747;23;93534;-84
2022/07/26 07:54:00;;;;;;;65.32;14.15;;;24.80;57.20;;;;;;6068585;23;93242;-83
2022/07/26 07:56:26;;;;;;;73.72;15.35;;;24.70;57.10;;;;;;6065493;23;93088;-85
2022/07/26 07:58:51;;;;;;;49.72;10.90;;;24.80;57.40;;;;;;6067482;23;91374;-84
2022/07/26 08:01:17;;;;;;;40.17;8.48;;;24.80;57.30;;;;;;6066949;23;92282;-84
2022/07/26 08:03:42;;;;;;;28.70;6.72;;;24.70;57.30;;;;;;6066824;23;92804;-83
2022/07/26 08:06:09;;;;;;;23.98;6.50;;;24.70;57.70;;;;;;6067067;23;93275;-83
2022/07/26 08:08:36;;;;;;;33.63;5.32;;;24.70;57.60;;;;;;6067498;23;92335;-83
2022/07/26 08:11:02;;;;;;;32.65;5.05;;;24.70;57.80;;;;;;6066897;23;92403;-83
2022/07/26 08:13:28;;;;;;;24.85;5.57;;;24.70;57.60;;;;;;6067022;23;92245;-83
2022/07/26 08:15:54;;;;;;;22.67;5.20;;;24.80;57.30;;;;;;6068158;23;91912;-83
2022/07/26 08:18:21;;;;;;;18.58;4.65;;;24.80;57.20;;;;;;6041451;23;91955;-82
2022/07/26 08:20:47;;;;;;;22.70;5.82;;;24.70;57.30;;;;;;6067850;23;92965;-83
2022/07/26 08:23:13;;;;;;;19.30;4.28;;;24.70;57.10;;;;;;6067339;23;91932;-83
2022/07/26 08:25:39;;;;;;;18.60;4.95;;;24.70;57.20;;;;;;6067463;23;92409;-83
2022/07/26 08:28:04;;;;;;;20.38;4.18;;;24.70;57.20;;;;;;6041191;23;91898;-82
2022/07/26 08:30:31;;;;;;;28.10;4.80;;;24.70;57.30;;;;;;6066203;23;93541;-84
2022/07/26 08:32:57;;;;;;;16.35;4.13;;;24.80;57.50;;;;;;6067138;23;93934;-81
2022/07/26 08:35:22;;;;;;;10.93;3.22;;;24.70;57.20;;;;;;6067954;23;92570;-82
2022/07/26 08:37:48;;;;;;;15.40;3.88;;;24.70;57.60;;;;;;6066593;23;91953;-81
2022/07/26 08:40:14;;;;;;;15.27;3.90;;;24.80;57.40;;;;;;6067047;23;93695;-82
2022/07/26 08:42:39;;;;;;;15.25;3.22;;;24.80;57.30;;;;;;6066568;23;93921;-82
2022/07/26 08:45:05;;;;;;;11.23;3.17;;;24.70;57.10;;;;;;6067587;23;91887;-82
2022/07/26 08:47:34;;;;;;;10.60;3.65;;;24.70;57.30;;;;;;6066566;23;91210;-83
2022/07/26 08:50:00;;;;;;;12.80;3.35;;;24.70;57.40;;;;;;6066755;23;93217;-82
2022/07/26 08:52:27;;;;;;;11.82;3.30;;;24.70;57.90;;;;;;6066442;23;92051;-83
2022/07/26 08:54:52;;;;;;;11.48;3.13;;;24.70;57.50;;;;;;6068963;23;93234;-82
2022/07/26 08:57:18;;;;;;;9.70;3.17;;;24.70;57.80;;;;;;6068292;23;92490;-82
2022/07/26 08:59:45;;;;;;;12.60;3.03;;;24.60;57.70;;;;;;6066651;23;92996;-83
2022/07/26 09:02:12;;;;;;;11.35;3.10;;;24.60;58.10;;;;;;6066798;23;92062;-82
2022/07/26 09:04:43;;;;;;;14.00;2.70;;;24.60;58.50;;;;;;6067792;23;91874;-82
2022/07/26 09:07:17;;;;;;;10.50;3.03;;;24.60;59.30;;;;;;6064915;23;92271;-83
2022/07/26 09:10:04;;;;;;;12.73;3.25;;;24.60;59.50;;;;;;6066652;23;93240;-83
2022/07/26 09:12:31;;;;;;;9.15;3.38;;;24.60;59.40;;;;;;6041149;23;95740;-83
2022/07/26 09:14:57;;;;;;;12.55;3.13;;;24.60;59.50;;;;;;6068530;23;92214;-84
2022/07/26 09:17:36;;;;;;;13.00;2.97;;;24.60;59.80;;;;;;6068700;23;92155;-83
2022/07/26 09:20:09;;;;;;;11.57;2.77;;;24.60;60.40;;;;;;6041717;23;96391;-84
2022/07/26 09:22:36;;;;;;;10.60;3.65;;;24.60;61.10;;;;;;6067591;23;96532;-83
2022/07/26 09:25:02;;;;;;;14.07;3.10;;;24.70;60.30;;;;;;6069161;23;92371;-83
2022/07/26 09:27:35;;;;;;;10.50;3.00;;;24.70;59.80;;;;;;6043123;23;92885;-83
2022/07/26 09:30:06;;;;;;;10.23;2.42;;;24.70;59.40;;;;;;6068974;23;92501;-84
2022/07/26 09:32:32;;;;;;;12.10;2.78;;;24.70;59.20;;;;;;6042052;23;95634;-84
2022/07/26 09:35:15;;;;;;;8.25;2.45;;;24.70;59.30;;;;;;6042208;23;92324;-83
2022/07/26 09:37:45;;;;;;;13.02;2.85;;;24.70;59.30;;;;;;6044240;23;91186;-83
2022/07/26 09:40:13;;;;;;;9.88;2.92;;;24.80;58.80;;;;;;6069073;23;92579;-83
2022/07/26 09:42:59;;;;;;;11.07;2.88;;;24.80;58.60;;;;;;6068775;23;93129;-83
2022/07/26 09:45:27;;;;;;;9.05;3.17;;;24.80;58.50;;;;;;6069044;23;93237;-82
2022/07/26 09:47:54;;;;;;;9.10;3.27;;;24.80;58.40;;;;;;6069126;23;92007;-82
2022/07/26 09:50:25;;;;;;;11.10;3.30;;;24.80;58.40;;;;;;6068129;23;93587;-82
2022/07/26 09:53:07;;;;;;;10.20;2.85;;;24.90;58.20;;;;;;6065448;23;93687;-86
2022/07/26 09:55:35;;;;;;;12.90;3.40;;;24.80;58.00;;;;;;6066431;23;91910;-83
2022/07/26 09:58:03;;;;;;;9.80;2.88;;;24.80;58.10;;;;;;6067460;23;92294;-83
2022/07/26 10:00:30;;;;;;;9.35;2.92;;;24.90;58.00;;;;;;6067012;23;94769;-84
2022/07/26 10:02:56;;;;;;;7.70;2.30;;;24.90;57.70;;;;;;6067993;23;92864;-83
2022/07/26 10:05:22;;;;;;;7.10;2.55;;;25.00;57.50;;;;;;6066975;23;91902;-81
2022/07/26 10:07:50;;;;;;;8.18;2.53;;;25.10;57.00;;;;;;6066971;23;92472;-82
2022/07/26 10:10:29;;;;;;;7.20;2.45;;;25.20;56.60;;;;;;6067069;23;94140;-82
2022/07/26 10:12:56;;;;;;;7.97;2.50;;;25.20;56.10;;;;;;6067925;23;94813;-83
2022/07/26 10:15:43;;;;;;;7.63;2.53;;;25.20;55.90;;;;;;6068663;23;92599;-83
2022/07/26 10:18:10;;;;;;;10.80;2.42;;;25.20;55.70;;;;;;6041944;23;92040;-85
2022/07/26 10:20:48;;;;;;;10.48;2.63;;;25.10;55.30;;;;;;6067547;23;92832;-82
2022/07/26 10:23:37;;;;;;;8.75;2.45;;;25.20;55.30;;;;;;6066574;23;92861;-81
2022/07/26 10:26:04;;;;;;;9.98;2.25;;;25.20;55.20;;;;;;5922179;23;92565;-81
2022/07/26 10:28:32;;;;;;;9.25;2.47;;;25.20;54.90;;;;;;5921367;23;91252;-82
2022/07/26 10:31:19;;;;;;;9.63;2.38;;;25.20;54.80;;;;;;5921483;23;93074;-83
2022/07/26 10:33:47;;;;;;;6.90;2.03;;;25.20;55.00;;;;;;5921958;23;94809;-82
2022/07/26 10:36:41;;;;;;;7.95;2.05;;;25.10;54.80;;;;;;5921217;23;93032;-82
2022/07/26 10:39:11;;;;;;;7.72;2.08;;;25.20;54.60;;;;;;5865460;24;92473;-84
2022/07/26 10:41:56;;;;;;;4.05;1.67;;;25.20;54.10;;;;;;5843048;24;96309;-82
2022/07/26 10:44:27;;;;;;;5.43;1.75;;;25.20;53.70;;;;;;5865510;24;93363;-81
2022/07/26 10:47:08;;;;;;;6.45;2.28;;;25.20;53.40;;;;;;5866605;24;92036;-82
2022/07/26 10:49:56;;;;;;;17.13;3.75;;;25.20;52.90;;;;;;5865130;24;92629;-82
2022/07/26 10:52:25;;;;;;;22.05;5.70;;;25.10;52.90;;;;;;5866635;24;93215;-82
2022/07/26 10:54:56;;;;;;;37.53;6.05;;;25.20;52.50;;;;;;5843688;24;94318;-85
2022/07/26 10:57:31;;;;;;;40.42;10.60;;;25.10;52.90;;;;;;5870542;24;91962;-83
2022/07/26 10:59:57;;;;;;;30.00;7.95;;;25.10;52.50;;;;;;5866123;24;92275;-82
2022/07/26 11:02:31;;;;;;;24.00;6.45;;;25.20;51.80;;;;;;5868263;23;97387;-81
2022/07/26 11:05:15;;;;;;;27.02;7.45;;;25.20;51.30;;;;;;6006412;23;92735;-83
2022/07/26 11:07:52;;;;;;;21.25;5.68;;;25.10;51.30;;;;;;6007863;23;91909;-82
2022/07/26 11:10:32;;;;;;;23.88;6.43;;;25.10;51.50;;;;;;6006254;23;92849;-84
2022/07/26 11:13:04;;;;;;;15.00;4.53;;;25.10;51.30;;;;;;6005466;23;93695;-81
2022/07/26 11:15:30;;;;;;;11.95;4.15;;;25.20;51.10;;;;;;6035181;23;91953;-82
2022/07/26 11:18:14;;;;;;;11.10;3.60;;;25.20;51.20;;;;;;6067172;23;91950;-83
2022/07/26 11:20:41;;;;;;;8.98;3.38;;;25.20;51.30;;;;;;6069032;23;91617;-82
2022/07/26 11:23:27;;;;;;;9.00;3.25;;;25.20;51.30;;;;;;6067814;23;94198;-85
2022/07/26 11:26:11;;;;;;;13.23;3.70;;;25.20;50.80;;;;;;6068260;23;93107;-82
2022/07/26 11:29:05;;;;;;;6.43;3.05;;;25.20;50.70;;;;;;6068595;23;92969;-84
2022/07/26 11:31:38;;;;;;;9.25;2.15;;;25.20;50.30;;;;;;6069073;23;91859;-82
2022/07/26 11:34:05;;;;;;;5.88;1.80;;;25.30;49.90;;;;;;6068500;23;93213;-82
2022/07/26 11:36:38;;;;;;;4.00;1.77;;;25.20;49.60;;;;;;6068709;23;92602;-82
2022/07/26 11:39:05;;;;;;;5.65;1.90;;;25.20;49.40;;;;;;6068708;23;91908;-82
2022/07/26 11:41:32;;;;;;;8.38;2.13;;;25.20;49.50;;;;;;5994108;23;91951;-82
2022/07/26 11:43:58;;;;;;;13.80;2.03;;;25.20;49.40;;;;;;6066770;23;93143;-78
2022/07/26 11:46:45;;;;;;;7.18;1.85;;;25.30;49.70;;;;;;6065525;23;93266;-85
2022/07/26 11:49:16;;;;;;;8.77;2.13;;;25.30;49.50;;;;;;6044498;23;92330;-85
2022/07/26 11:51:59;;;;;;;13.70;2.00;;;25.40;50.00;;;;;;6070690;23;91881;-86
2022/07/26 11:54:47;;;;;;;16.10;2.33;;;25.40;50.80;;;;;;6068569;23;94441;-84
2022/07/26 11:57:12;;;;;;;3.92;1.83;;;25.30;51.10;;;;;;6069699;23;93863;-86
2022/07/26 11:59:39;;;;;;;9.88;2.10;;;25.30;51.40;;;;;;6044897;23;92378;-85
2022/07/26 12:02:07;;;;;;;6.95;1.63;;;25.20;51.60;;;;;;6070619;23;91893;-85
2022/07/26 12:04:38;;;;;;;7.90;1.70;;;25.20;51.90;;;;;;6070737;23;92806;-86
2022/07/26 12:07:11;;;;;;;5.90;1.67;;;25.20;52.00;;;;;;6070070;23;93018;-84
2022/07/26 12:09:40;;;;;;;8.10;2.50;;;25.20;52.20;;;;;;6070518;23;91790;-85
2022/07/26 12:12:08;;;;;;;8.98;2.13;;;25.20;52.10;;;;;;6070903;23;91086;-85
2022/07/26 12:14:36;;;;;;;7.65;2.03;;;25.20;52.20;;;;;;6008787;23;94689;-86
2022/07/26 12:17:15;;;;;;;8.25;2.10;;;25.20;52.30;;;;;;6008799;23;96497;-86
2022/07/26 12:19:42;;;;;;;8.93;1.98;;;25.20;52.60;;;;;;6008901;23;93309;-85
2022/07/26 12:22:14;;;;;;;9.23;2.45;;;25.20;52.80;;;;;;6008894;23;92467;-85
2022/07/26 12:24:40;;;;;;;6.05;1.85;;;25.20;52.40;;;;;;6008602;23;93091;-85
2022/07/26 12:27:18;;;;;;;8.65;2.00;;;25.20;52.60;;;;;;6008943;23;92744;-85
2022/07/26 12:29:47;;;;;;;5.05;2.08;;;25.20;52.30;;;;;;6010786;23;92441;-86
2022/07/26 12:32:18;;;;;;;6.50;2.30;;;25.20;52.70;;;;;;6009735;23;91986;-86
2022/07/26 12:35:00;;;;;;;4.05;1.65;;;25.20;52.70;;;;;;5984429;23;96666;-86
2022/07/26 12:37:41;;;;;;;;;;;;;;;;;;;;;
2022/07/26 12:40:11;;;;;;;7.45;1.90;;;25.20;53.30;;;;;;6009308;23;93821;-85
2022/07/26 12:42:56;;;;;;;6.47;1.70;;;25.20;53.30;;;;;;6007502;23;92751;-85
2022/07/26 12:45:30;;;;;;;5.10;1.60;;;25.20;53.50;;;;;;6024835;23;96746;-83
2022/07/26 12:47:58;;;;;;;6.18;2.03;;;25.20;53.40;;;;;;6069192;23;93663;-86
2022/07/26 12:50:25;;;;;;;5.90;2.15;;;25.20;54.00;;;;;;6070830;23;92387;-83